Time;durP1;ratioP1;P1;durP2;ratioP2;P2;SDS_P1;SDS_P2;PMS_P1;PMS_P2;Temp;Humidity;BMP_temperature;BMP_pressure;BME280_temperature;BME280_humidity;BME280_pressure;Samples;Min_cycle;Max_cycle;Signal;HPM_P1;HPM_P2
2021/06/24 00:01:34;;;;;;;3.10;1.80;;;16.00;99.90;;;;;;4995457;28;20538;-68
2021/06/24 00:03:59;;;;;;;2.27;2.10;;;15.90;99.90;;;;;;4995363;28;20207;-69
2021/06/24 00:06:25;;;;;;;1.83;1.73;;;15.90;99.90;;;;;;4995431;28;20921;-67
2021/06/24 00:08:51;;;;;;;2.23;2.13;;;15.90;99.90;;;;;;4995595;28;20172;-67
2021/06/24 00:11:16;;;;;;;2.43;2.23;;;15.90;99.90;;;;;;4995361;28;20179;-66
2021/06/24 00:13:43;;;;;;;1.80;1.70;;;15.90;99.90;;;;;;4995375;28;20209;-68
2021/06/24 00:16:08;;;;;;;2.50;2.30;;;15.90;99.90;;;;;;4995376;28;20315;-66
2021/06/24 00:18:34;;;;;;;2.60;2.40;;;15.80;99.90;;;;;;4994920;28;20936;-69
2021/06/24 00:21:00;;;;;;;2.33;2.20;;;15.70;99.90;;;;;;4995171;28;20269;-67
2021/06/24 00:23:26;;;;;;;2.70;2.50;;;15.70;99.90;;;;;;4994952;28;20490;-68
2021/06/24 00:25:52;;;;;;;2.10;2.00;;;15.60;99.90;;;;;;4995265;28;20176;-68
2021/06/24 00:28:18;;;;;;;2.30;2.03;;;15.50;99.90;;;;;;4995179;28;20173;-69
2021/06/24 00:30:46;;;;;;;4.50;2.07;;;15.40;99.90;;;;;;4995160;28;20980;-69
2021/06/24 00:33:13;;;;;;;5.23;2.33;;;15.30;99.90;;;;;;4994939;28;20423;-68
2021/06/24 00:35:39;;;;;;;3.03;2.47;;;15.40;99.90;;;;;;4995067;28;20450;-69
2021/06/24 00:38:06;;;;;;;3.07;2.80;;;15.40;99.90;;;;;;4994853;28;20407;-68
2021/06/24 00:40:34;;;;;;;1.57;1.47;;;15.40;99.90;;;;;;4994822;28;20446;-67
2021/06/24 00:43:01;;;;;;;2.83;2.20;;;15.40;99.90;;;;;;4994577;28;20452;-69
2021/06/24 00:45:28;;;;;;;1.70;1.60;;;15.30;99.90;;;;;;4994673;28;20423;-68
2021/06/24 00:47:53;;;;;;;1.73;1.60;;;15.20;99.90;;;;;;4994828;28;20820;-69
2021/06/24 00:50:19;;;;;;;1.67;1.57;;;15.10;99.90;;;;;;4994763;28;20494;-68
2021/06/24 00:52:45;;;;;;;1.93;1.83;;;15.10;99.90;;;;;;4994461;28;20172;-66
2021/06/24 00:55:11;;;;;;;2.43;2.07;;;15.10;99.90;;;;;;4994406;28;20685;-68
2021/06/24 00:57:37;;;;;;;2.00;1.50;;;15.10;99.90;;;;;;4994626;28;20184;-68
2021/06/24 01:00:07;;;;;;;2.60;2.40;;;15.20;99.90;;;;;;4994618;28;20867;-69
2021/06/24 01:02:32;;;;;;;1.87;1.77;;;15.10;99.90;;;;;;4994081;28;20442;-67
2021/06/24 01:04:58;;;;;;;2.43;2.23;;;15.10;99.90;;;;;;4994229;28;20451;-68
2021/06/24 01:07:25;;;;;;;1.90;1.80;;;15.00;99.90;;;;;;4994343;28;20176;-69
2021/06/24 01:09:50;;;;;;;2.23;2.03;;;15.00;99.90;;;;;;4994293;28;20188;-68
2021/06/24 01:12:16;;;;;;;2.20;2.07;;;15.00;99.90;;;;;;4994185;28;20430;-68
2021/06/24 01:14:42;;;;;;;2.63;2.20;;;15.00;99.90;;;;;;4992828;28;20189;-69
2021/06/24 01:17:08;;;;;;;3.67;2.30;;;15.00;99.90;;;;;;4994140;28;20498;-67
2021/06/24 01:19:34;;;;;;;2.13;1.43;;;15.00;99.90;;;;;;4994324;28;20786;-69
2021/06/24 01:22:00;;;;;;;3.07;1.60;;;14.90;99.90;;;;;;4994108;28;20191;-67
2021/06/24 01:24:26;;;;;;;1.60;1.50;;;14.90;99.90;;;;;;4993942;28;20465;-69
2021/06/24 01:26:52;;;;;;;1.80;1.70;;;14.70;99.90;;;;;;4994395;28;20403;-67
2021/06/24 01:29:18;;;;;;;1.93;1.80;;;14.60;99.90;;;;;;4993310;28;20405;-69
2021/06/24 01:31:44;;;;;;;4.50;2.50;;;14.60;99.90;;;;;;4993858;28;20190;-69
2021/06/24 01:34:12;;;;;;;1.77;1.67;;;14.60;99.90;;;;;;4994105;28;20434;-67
2021/06/24 01:36:39;;;;;;;2.00;1.90;;;14.60;99.90;;;;;;4994098;28;20168;-68
2021/06/24 01:39:09;;;;;;;2.30;2.10;;;14.50;99.90;;;;;;4994061;28;20414;-68
2021/06/24 01:41:35;;;;;;;2.37;2.17;;;14.50;99.90;;;;;;4993963;28;20457;-67
2021/06/24 01:44:01;;;;;;;4.00;2.37;;;14.50;99.90;;;;;;4993885;28;20463;-69
2021/06/24 01:46:27;;;;;;;1.67;1.57;;;14.50;99.90;;;;;;4993792;28;20412;-69
2021/06/24 01:48:52;;;;;;;2.37;2.17;;;14.50;99.90;;;;;;4993893;28;20557;-66
2021/06/24 01:55:05;;;;;;;1.67;1.57;;;14.40;99.90;;;;;;4993785;28;20229;-67
2021/06/24 01:57:31;;;;;;;2.90;2.30;;;14.40;99.90;;;;;;4993707;28;20392;-67
2021/06/24 01:59:58;;;;;;;2.43;1.70;;;14.30;99.90;;;;;;4993757;28;20931;-67
2021/06/24 02:02:24;;;;;;;1.97;1.87;;;14.30;99.90;;;;;;4993557;28;20199;-68
2021/06/24 02:04:50;;;;;;;1.83;1.73;;;14.30;99.90;;;;;;4993578;28;20454;-66
2021/06/24 02:07:16;;;;;;;2.40;2.30;;;14.30;99.90;;;;;;4993533;28;20407;-68
2021/06/24 02:09:42;;;;;;;1.47;1.37;;;14.30;99.90;;;;;;4993813;28;20550;-66
2021/06/24 02:12:08;;;;;;;1.47;1.37;;;14.30;99.90;;;;;;4993608;28;20214;-67
2021/06/24 02:14:33;;;;;;;2.23;2.13;;;14.30;99.90;;;;;;4993555;28;20195;-69
2021/06/24 02:16:59;;;;;;;2.27;2.07;;;14.30;99.90;;;;;;4993625;28;20399;-66
2021/06/24 02:19:25;;;;;;;2.20;1.57;;;14.30;99.90;;;;;;4993459;28;20164;-68
2021/06/24 02:21:50;;;;;;;2.97;1.50;;;14.30;99.90;;;;;;4993410;28;20169;-69
2021/06/24 02:24:16;;;;;;;1.90;1.60;;;14.30;99.90;;;;;;4993310;28;20200;-69
2021/06/24 02:26:42;;;;;;;1.50;1.40;;;14.30;99.90;;;;;;4993415;28;20173;-67
2021/06/24 02:29:07;;;;;;;1.60;1.50;;;14.30;99.90;;;;;;4993529;28;20410;-69
2021/06/24 02:31:33;;;;;;;1.47;1.37;;;14.30;99.90;;;;;;4993301;28;20691;-69
2021/06/24 02:34:00;;;;;;;1.50;1.20;;;14.30;99.90;;;;;;4993411;28;20251;-69
2021/06/24 02:36:26;;;;;;;1.20;1.10;;;14.40;99.90;;;;;;4992131;28;20571;-67
2021/06/24 02:38:51;;;;;;;1.33;1.30;;;14.20;99.90;;;;;;4993596;28;20422;-69
2021/06/24 02:41:17;;;;;;;1.50;1.40;;;14.10;99.90;;;;;;4994789;28;20245;-68
2021/06/24 02:43:42;;;;;;;1.87;1.77;;;14.20;99.90;;;;;;4996835;28;20573;-68
2021/06/24 02:46:08;;;;;;;1.57;1.33;;;14.10;99.90;;;;;;4996968;28;20168;-67
2021/06/24 02:48:34;;;;;;;2.40;1.73;;;14.10;99.90;;;;;;4996985;28;20173;-68
2021/06/24 02:50:59;;;;;;;1.70;1.60;;;14.00;99.90;;;;;;4996900;28;20176;-66
2021/06/24 02:53:25;;;;;;;1.93;1.80;;;13.90;99.90;;;;;;4996723;28;20255;-67
2021/06/24 02:55:51;;;;;;;1.30;1.30;;;13.70;99.90;;;;;;4996641;28;20676;-68
2021/06/24 02:58:16;;;;;;;1.70;1.60;;;13.70;99.90;;;;;;4996800;28;20179;-67
2021/06/24 03:00:42;;;;;;;1.70;1.60;;;13.70;99.90;;;;;;4996663;28;20696;-68
2021/06/24 03:03:08;;;;;;;1.67;1.57;;;13.70;99.90;;;;;;4996413;28;20195;-68
2021/06/24 03:05:33;;;;;;;2.30;1.10;;;13.70;99.90;;;;;;4996547;28;20194;-69
2021/06/24 03:07:59;;;;;;;1.10;1.00;;;13.70;99.90;;;;;;4996556;28;20251;-67
2021/06/24 03:10:25;;;;;;;1.50;1.40;;;13.70;99.90;;;;;;4996569;28;20645;-66
2021/06/24 03:12:51;;;;;;;1.23;1.13;;;13.60;99.90;;;;;;4996416;28;20595;-68
2021/06/24 03:15:17;;;;;;;1.87;0.90;;;13.50;99.90;;;;;;4996328;28;20431;-68
2021/06/24 03:17:42;;;;;;;1.60;1.50;;;13.50;99.90;;;;;;4996370;28;20411;-68
2021/06/24 03:20:10;;;;;;;1.00;1.00;;;13.40;99.90;;;;;;4996276;28;20410;-69
2021/06/24 03:22:36;;;;;;;1.70;1.60;;;13.50;99.90;;;;;;4996113;28;20298;-69
2021/06/24 03:25:04;;;;;;;1.30;1.30;;;13.50;99.90;;;;;;4996198;28;20913;-67
2021/06/24 03:27:30;;;;;;;1.27;1.20;;;13.50;99.90;;;;;;4996276;28;20402;-68
2021/06/24 03:29:55;;;;;;;1.77;1.57;;;13.50;99.90;;;;;;4996260;28;20415;-68
2021/06/24 03:32:21;;;;;;;1.10;1.07;;;13.40;99.90;;;;;;4995971;28;20167;-69
2021/06/24 03:34:47;;;;;;;1.53;1.10;;;13.40;99.90;;;;;;4996172;28;20196;-69
2021/06/24 03:37:12;;;;;;;1.30;1.20;;;13.40;99.90;;;;;;4995999;28;20190;-66
2021/06/24 03:39:39;;;;;;;1.13;1.10;;;13.40;99.90;;;;;;4995998;28;20176;-68
2021/06/24 03:42:05;;;;;;;2.13;1.23;;;13.40;99.90;;;;;;4995781;28;20192;-68
2021/06/24 03:44:31;;;;;;;1.03;1.03;;;13.30;99.90;;;;;;4995912;28;20454;-66
2021/06/24 03:46:56;;;;;;;0.90;0.90;;;13.30;99.90;;;;;;4995899;28;20450;-68
2021/06/24 03:49:22;;;;;;;2.77;1.47;;;13.30;99.90;;;;;;4995742;28;20415;-67
2021/06/24 03:51:48;;;;;;;1.00;0.97;;;13.30;99.90;;;;;;4995347;28;20180;-68
2021/06/24 03:54:13;;;;;;;1.70;1.60;;;13.40;99.90;;;;;;4995016;28;20208;-67
2021/06/24 03:56:39;;;;;;;2.37;1.30;;;13.40;99.90;;;;;;4996006;28;20548;-66
2021/06/24 03:59:05;;;;;;;1.93;1.13;;;13.40;99.90;;;;;;4995735;28;20192;-68
2021/06/24 04:01:31;;;;;;;1.93;1.70;;;13.40;99.90;;;;;;4995516;28;20909;-66
2021/06/24 04:03:57;;;;;;;1.87;1.77;;;13.50;99.90;;;;;;4995413;28;20583;-69
2021/06/24 04:06:23;;;;;;;1.33;1.23;;;13.40;99.90;;;;;;4995628;28;20262;-68
2021/06/24 04:08:48;;;;;;;1.13;1.03;;;13.40;99.90;;;;;;4995423;28;20411;-68
2021/06/24 04:11:15;;;;;;;1.90;1.27;;;13.20;99.90;;;;;;4995258;28;20593;-66
2021/06/24 04:13:40;;;;;;;1.20;1.10;;;13.20;99.90;;;;;;4995149;28;20204;-69
2021/06/24 04:16:06;;;;;;;1.30;1.20;;;13.30;99.90;;;;;;4995261;28;20441;-66
2021/06/24 04:18:33;;;;;;;0.80;0.73;;;13.40;99.90;;;;;;4995332;28;20223;-67
2021/06/24 04:20:59;;;;;;;2.50;1.53;;;13.40;99.90;;;;;;4994981;28;20422;-69
2021/06/24 04:23:25;;;;;;;1.00;1.00;;;13.50;99.90;;;;;;4995229;28;20769;-68
2021/06/24 04:25:51;;;;;;;1.37;1.27;;;13.70;99.90;;;;;;4995154;28;20173;-67
2021/06/24 04:28:16;;;;;;;1.40;1.30;;;14.10;99.90;;;;;;4995207;28;20168;-68
2021/06/24 04:30:42;;;;;;;1.43;1.33;;;14.60;99.90;;;;;;4995232;28;20176;-68
2021/06/24 04:33:07;;;;;;;1.00;1.00;;;15.20;99.90;;;;;;4994937;28;20709;-67
2021/06/24 04:35:36;;;;;;;1.90;0.80;;;15.80;99.90;;;;;;4993565;28;20222;-66
2021/06/24 04:38:02;;;;;;;0.90;0.90;;;16.40;99.90;;;;;;4994929;28;20674;-67
2021/06/24 04:40:28;;;;;;;0.90;0.90;;;16.80;99.90;;;;;;4995020;28;20779;-68
2021/06/24 04:42:54;;;;;;;0.80;0.80;;;16.90;99.90;;;;;;4994720;28;20419;-67
2021/06/24 04:45:20;;;;;;;0.60;0.60;;;17.00;99.90;;;;;;4994641;28;20437;-69
2021/06/24 04:47:48;;;;;;;0.70;0.60;;;16.90;99.90;;;;;;4994834;28;20171;-67
2021/06/24 04:50:14;;;;;;;1.67;1.30;;;16.80;99.90;;;;;;4994683;28;20181;-69
2021/06/24 04:52:40;;;;;;;0.70;0.70;;;16.50;99.90;;;;;;4994459;28;20443;-69
2021/06/24 04:55:06;;;;;;;0.70;0.67;;;16.50;99.90;;;;;;4994505;28;20436;-69
2021/06/24 04:57:32;;;;;;;0.80;0.80;;;16.40;99.90;;;;;;4994705;28;20404;-69
2021/06/24 04:59:57;;;;;;;4.13;1.30;;;16.40;99.90;;;;;;4994632;28;20788;-67
2021/06/24 05:02:23;;;;;;;1.17;0.70;;;16.30;99.90;;;;;;4994300;28;20229;-66
2021/06/24 05:04:50;;;;;;;1.00;1.00;;;16.40;99.90;;;;;;4994070;28;20203;-68
2021/06/24 05:07:16;;;;;;;0.73;0.73;;;16.50;99.90;;;;;;4994584;28;20167;-69
2021/06/24 05:09:42;;;;;;;1.80;1.20;;;16.60;99.90;;;;;;4994562;28;20414;-69
2021/06/24 05:12:09;;;;;;;1.17;1.10;;;16.50;99.90;;;;;;4994114;28;20402;-69
2021/06/24 05:14:39;;;;;;;6.63;1.00;;;16.50;99.90;;;;;;4994112;28;20881;-69
2021/06/24 05:17:05;;;;;;;0.90;0.90;;;16.60;99.90;;;;;;4994214;28;20460;-66
2021/06/24 05:19:34;;;;;;;0.90;0.90;;;16.60;99.90;;;;;;4994198;28;20402;-66
2021/06/24 05:21:59;;;;;;;1.40;1.30;;;16.50;99.90;;;;;;4992751;28;20491;-67
2021/06/24 05:24:25;;;;;;;4.00;1.43;;;16.50;99.90;;;;;;4994276;28;20593;-68
2021/06/24 05:26:51;;;;;;;0.87;0.87;;;16.50;99.90;;;;;;4994121;28;20172;-67
2021/06/24 05:29:17;;;;;;;1.20;1.10;;;16.60;99.90;;;;;;4992899;28;20499;-69
2021/06/24 05:31:43;;;;;;;2.93;1.80;;;16.70;99.90;;;;;;4993963;28;20251;-67
2021/06/24 05:34:08;;;;;;;1.37;1.27;;;16.90;99.90;;;;;;4993969;28;20693;-69
2021/06/24 05:36:34;;;;;;;1.47;1.13;;;17.00;99.90;;;;;;4994025;28;20882;-67
2021/06/24 05:39:00;;;;;;;0.97;0.97;;;17.00;99.90;;;;;;4994205;28;20172;-68
2021/06/24 05:41:26;;;;;;;1.67;1.10;;;17.10;99.90;;;;;;4993829;28;20199;-68
2021/06/24 05:43:52;;;;;;;1.23;1.13;;;17.20;99.90;;;;;;4993872;28;20952;-69
2021/06/24 05:46:17;;;;;;;1.80;0.90;;;17.40;99.90;;;;;;4993855;28;20208;-69
2021/06/24 05:48:43;;;;;;;0.90;0.90;;;17.60;99.90;;;;;;4993864;28;20172;-67
2021/06/24 05:51:09;;;;;;;0.87;0.87;;;17.80;99.90;;;;;;4993689;28;20696;-68
2021/06/24 05:53:35;;;;;;;1.67;1.00;;;18.00;99.90;;;;;;4993657;28;20195;-69
2021/06/24 05:56:00;;;;;;;1.20;1.10;;;18.00;99.90;;;;;;4992437;28;20566;-69
2021/06/24 05:58:29;;;;;;;0.97;0.97;;;18.00;99.90;;;;;;4993857;28;20267;-69
2021/06/24 06:00:56;;;;;;;1.40;0.90;;;18.20;99.90;;;;;;4993593;28;20168;-67
2021/06/24 06:03:22;;;;;;;0.90;0.90;;;18.40;99.90;;;;;;4993643;28;20489;-67
2021/06/24 06:05:51;;;;;;;0.90;0.90;;;18.80;99.90;;;;;;4993879;28;20779;-68
2021/06/24 06:08:18;;;;;;;1.47;0.90;;;19.10;99.90;;;;;;4993874;28;20410;-69
2021/06/24 06:10:44;;;;;;;2.67;2.50;;;19.40;99.60;;;;;;4993884;28;20411;-68
2021/06/24 06:13:11;;;;;;;3.30;3.07;;;19.50;98.50;;;;;;4993394;28;20468;-67
2021/06/24 06:15:39;;;;;;;5.07;4.67;;;19.70;98.50;;;;;;4994049;28;20413;-68
2021/06/24 06:18:25;;;;;;;5.80;5.50;;;19.90;98.70;;;;;;4997625;28;20414;-68
2021/06/24 06:20:53;;;;;;;9.77;9.07;;;20.00;98.30;;;;;;4997540;28;20410;-69
2021/06/24 06:23:20;;;;;;;9.93;9.33;;;20.10;97.90;;;;;;4997218;28;20476;-68
2021/06/24 06:25:46;;;;;;;9.60;9.00;;;20.40;98.80;;;;;;4997182;28;20436;-67
2021/06/24 06:28:13;;;;;;;13.47;12.40;;;20.90;97.60;;;;;;4997541;28;20461;-68
2021/06/24 06:30:39;;;;;;;17.93;16.53;;;21.40;96.80;;;;;;4997238;28;20486;-69
2021/06/24 06:33:05;;;;;;;13.20;10.80;;;21.50;95.00;;;;;;4996960;28;21038;-69
2021/06/24 06:35:31;;;;;;;5.97;5.57;;;21.30;95.50;;;;;;4997106;28;20435;-68
2021/06/24 06:37:57;;;;;;;6.83;6.33;;;21.00;95.80;;;;;;4997274;28;20174;-67
2021/06/24 06:40:23;;;;;;;3.77;3.47;;;20.70;97.00;;;;;;4997041;28;20426;-69
2021/06/24 06:42:48;;;;;;;2.50;2.30;;;20.40;96.70;;;;;;4996964;28;20673;-68
2021/06/24 06:45:17;;;;;;;2.80;2.60;;;20.20;97.90;;;;;;4996949;28;20196;-68
2021/06/24 06:47:44;;;;;;;2.63;2.43;;;19.90;97.60;;;;;;4997333;28;20180;-69
2021/06/24 06:50:10;;;;;;;2.50;2.40;;;19.70;98.20;;;;;;4996813;28;20910;-68
2021/06/24 06:52:35;;;;;;;3.97;3.57;;;19.50;99.20;;;;;;4996626;28;20555;-68
2021/06/24 06:55:01;;;;;;;2.77;2.57;;;19.40;99.90;;;;;;4997165;28;20429;-68
2021/06/24 06:57:27;;;;;;;2.37;2.17;;;19.30;99.50;;;;;;4996795;28;20178;-67
2021/06/24 06:59:52;;;;;;;3.70;2.50;;;19.10;99.90;;;;;;4996650;28;20252;-69
2021/06/24 07:02:18;;;;;;;2.50;2.30;;;18.90;99.20;;;;;;4996633;28;20238;-67
2021/06/24 07:04:44;;;;;;;2.53;2.03;;;18.80;99.90;;;;;;4996634;28;20196;-67
2021/06/24 07:07:10;;;;;;;3.43;1.57;;;18.60;99.90;;;;;;4996624;28;20767;-70
2021/06/24 07:09:35;;;;;;;1.90;1.80;;;18.40;99.90;;;;;;4996797;28;20263;-68
2021/06/24 07:12:01;;;;;;;1.80;1.70;;;18.30;99.90;;;;;;4996378;28;20408;-67
2021/06/24 07:14:27;;;;;;;2.00;1.90;;;18.20;99.90;;;;;;4996367;28;20211;-70
2021/06/24 07:16:53;;;;;;;2.40;2.30;;;18.10;99.90;;;;;;4996365;28;20407;-69
2021/06/24 07:19:19;;;;;;;2.10;2.00;;;18.10;99.90;;;;;;4996478;28;20619;-70
2021/06/24 07:21:45;;;;;;;1.80;1.70;;;18.10;99.90;;;;;;4994937;28;20714;-68
2021/06/24 07:24:14;;;;;;;1.80;1.70;;;18.10;99.90;;;;;;4996228;28;20195;-69
2021/06/24 07:26:39;;;;;;;2.17;2.07;;;18.10;99.90;;;;;;4995681;28;20409;-70
2021/06/24 07:29:05;;;;;;;3.13;1.40;;;18.20;99.90;;;;;;4995525;28;20403;-70
2021/06/24 07:31:31;;;;;;;1.50;1.50;;;18.20;99.90;;;;;;4994766;28;20176;-69
2021/06/24 07:33:56;;;;;;;1.10;1.10;;;18.30;99.90;;;;;;4996113;28;20264;-70
2021/06/24 07:36:22;;;;;;;2.20;2.10;;;18.40;99.90;;;;;;4995995;28;20550;-70
2021/06/24 07:38:48;;;;;;;3.27;3.00;;;18.40;99.90;;;;;;4995985;28;20190;-69
2021/06/24 07:41:14;;;;;;;1.60;1.50;;;18.40;99.90;;;;;;4996217;28;20600;-67
2021/06/24 07:43:39;;;;;;;1.70;1.60;;;18.40;99.90;;;;;;4995904;28;20331;-68
2021/06/24 07:46:05;;;;;;;2.10;1.43;;;18.50;99.90;;;;;;4995948;28;20202;-69
2021/06/24 07:48:30;;;;;;;1.60;1.50;;;18.40;99.90;;;;;;4995971;28;20215;-70
2021/06/24 07:50:56;;;;;;;1.13;1.03;;;18.30;99.90;;;;;;4995792;28;20183;-68
2021/06/24 07:53:22;;;;;;;1.60;1.50;;;18.20;99.90;;;;;;4995587;28;20202;-68
2021/06/24 07:55:48;;;;;;;1.83;1.73;;;18.20;99.90;;;;;;4995888;28;20410;-68
2021/06/24 07:58:14;;;;;;;3.10;1.60;;;18.30;99.90;;;;;;4995680;28;20246;-68
2021/06/24 08:00:40;;;;;;;1.40;1.30;;;18.40;99.90;;;;;;4995643;28;20172;-68
2021/06/24 08:03:06;;;;;;;1.37;1.27;;;18.40;99.90;;;;;;4995372;28;20411;-70
2021/06/24 08:05:33;;;;;;;1.20;1.10;;;18.40;99.90;;;;;;4994557;28;20216;-70
2021/06/24 08:07:59;;;;;;;1.30;1.20;;;18.30;99.90;;;;;;4995650;28;20483;-70
2021/06/24 08:10:24;;;;;;;1.50;1.40;;;18.20;99.90;;;;;;4995825;28;20492;-69
2021/06/24 08:12:50;;;;;;;1.13;1.03;;;18.30;99.90;;;;;;4995259;28;20255;-70
2021/06/24 08:15:18;;;;;;;1.00;1.00;;;18.20;99.90;;;;;;4995404;28;20184;-70
2021/06/24 08:17:45;;;;;;;1.07;1.00;;;18.10;99.90;;;;;;4995502;28;20450;-69
2021/06/24 08:20:12;;;;;;;1.07;0.90;;;18.00;99.90;;;;;;4994172;28;20877;-68
2021/06/24 08:22:38;;;;;;;1.10;1.00;;;17.90;99.90;;;;;;4995133;28;20407;-70
2021/06/24 08:25:06;;;;;;;1.30;1.20;;;17.80;99.90;;;;;;4995434;28;20925;-69
2021/06/24 08:27:34;;;;;;;0.90;0.90;;;17.60;99.90;;;;;;4995064;28;20407;-69
2021/06/24 08:29:59;;;;;;;2.73;0.93;;;17.40;99.90;;;;;;4995308;28;20407;-68
2021/06/24 08:32:25;;;;;;;1.43;1.33;;;17.30;99.90;;;;;;4994822;28;20759;-70
2021/06/24 08:34:51;;;;;;;1.43;1.33;;;17.30;99.90;;;;;;4994946;28;20237;-67
2021/06/24 08:37:17;;;;;;;1.43;1.33;;;17.30;99.90;;;;;;4994988;28;20176;-70
2021/06/24 08:39:43;;;;;;;2.97;1.40;;;17.30;99.90;;;;;;4994546;28;20168;-69
2021/06/24 08:42:12;;;;;;;1.47;1.40;;;17.30;99.90;;;;;;4994839;28;20199;-69
2021/06/24 08:44:39;;;;;;;1.20;1.13;;;17.40;99.90;;;;;;4994782;28;20478;-70
2021/06/24 08:47:07;;;;;;;0.80;0.80;;;17.50;99.90;;;;;;4994767;28;20415;-67
2021/06/24 08:49:35;;;;;;;1.60;1.50;;;17.60;99.90;;;;;;4994609;28;20766;-67
2021/06/24 08:52:00;;;;;;;1.20;1.10;;;17.70;99.90;;;;;;4994674;28;20535;-67
2021/06/24 08:54:26;;;;;;;1.63;1.50;;;17.80;99.90;;;;;;4994651;28;20472;-70
2021/06/24 08:56:53;;;;;;;1.50;1.40;;;17.90;99.90;;;;;;4994678;28;20240;-70
2021/06/24 08:59:18;;;;;;;1.90;1.20;;;17.90;99.90;;;;;;4994637;28;20172;-68
2021/06/24 09:01:52;;;;;;;2.03;1.83;;;18.10;99.90;;;;;;4994438;28;20468;-69
2021/06/24 09:04:22;;;;;;;1.23;1.23;;;18.40;99.80;;;;;;4994262;28;20279;-67
2021/06/24 09:06:49;;;;;;;1.67;1.53;;;18.70;99.90;;;;;;4994694;28;20498;-66
2021/06/24 09:09:31;;;;;;;2.20;1.00;;;18.90;99.50;;;;;;4994459;28;20941;-68
2021/06/24 09:12:08;;;;;;;2.70;1.90;;;19.20;97.80;;;;;;4994261;28;20404;-67
2021/06/24 09:14:54;;;;;;;1.63;1.13;;;19.50;97.70;;;;;;4993078;28;20463;-70
2021/06/24 09:17:39;;;;;;;1.40;1.30;;;19.80;98.50;;;;;;4994221;28;20884;-70
2021/06/24 09:20:27;;;;;;;2.20;1.37;;;20.20;96.80;;;;;;4994437;28;20414;-69
2021/06/24 09:23:12;;;;;;;1.97;1.10;;;20.90;95.50;;;;;;4993803;28;20422;-70
2021/06/24 09:25:41;;;;;;;1.13;1.00;;;21.60;96.10;;;;;;4994025;28;20441;-69
2021/06/24 09:28:08;;;;;;;0.93;0.93;;;21.90;94.50;;;;;;4994139;28;20417;-68
2021/06/24 09:30:37;;;;;;;1.00;0.80;;;22.20;94.40;;;;;;4994162;28;20411;-70
2021/06/24 09:33:11;;;;;;;0.70;0.70;;;22.20;93.80;;;;;;4993709;28;20471;-69
2021/06/24 09:35:38;;;;;;;1.43;0.80;;;22.20;94.40;;;;;;4993933;28;20439;-69
2021/06/24 09:38:15;;;;;;;1.73;1.00;;;22.30;94.40;;;;;;4994039;28;20487;-71
2021/06/24 09:40:46;;;;;;;1.63;0.70;;;22.20;94.00;;;;;;4994255;28;20422;-70
2021/06/24 09:43:27;;;;;;;0.83;0.83;;;22.20;95.00;;;;;;4993720;28;20407;-70
2021/06/24 09:46:12;;;;;;;2.40;0.80;;;21.70;92.90;;;;;;4993825;28;20412;-68
2021/06/24 09:48:42;;;;;;;0.93;0.93;;;21.40;92.90;;;;;;4993782;28;20414;-68
2021/06/24 09:51:32;;;;;;;1.63;1.20;;;21.30;93.80;;;;;;4992901;28;20414;-69
2021/06/24 09:54:10;;;;;;;1.60;1.23;;;21.30;94.70;;;;;;4993657;28;20944;-69
2021/06/24 09:56:44;;;;;;;1.27;1.27;;;21.50;93.60;;;;;;4993996;28;20413;-69
2021/06/24 09:59:14;;;;;;;0.87;0.80;;;21.70;95.30;;;;;;4993980;28;20461;-69
2021/06/24 10:01:43;;;;;;;1.20;1.10;;;21.90;95.10;;;;;;4993700;28;20403;-68
2021/06/24 10:04:27;;;;;;;1.60;0.80;;;22.00;94.40;;;;;;4993569;28;20444;-70
2021/06/24 10:06:57;;;;;;;0.60;0.60;;;22.20;93.80;;;;;;4994125;28;20548;-70
2021/06/24 10:09:25;;;;;;;2.40;0.70;;;22.30;93.40;;;;;;4993725;28;20925;-70
2021/06/24 10:11:51;;;;;;;0.70;0.70;;;22.40;93.30;;;;;;4992311;28;20412;-67
2021/06/24 10:14:19;;;;;;;0.80;0.60;;;22.30;91.80;;;;;;4993376;28;20468;-67
2021/06/24 10:16:55;;;;;;;0.70;0.70;;;22.30;92.50;;;;;;4993794;28;20939;-70
2021/06/24 10:19:26;;;;;;;0.87;0.87;;;22.60;92.00;;;;;;4994006;28;20770;-70
2021/06/24 10:21:57;;;;;;;1.17;1.17;;;23.00;93.40;;;;;;4992052;28;20936;-68
2021/06/24 10:24:30;;;;;;;0.80;0.80;;;23.40;87.60;;;;;;4993709;28;20438;-68
2021/06/24 10:26:59;;;;;;;0.87;0.87;;;23.60;87.00;;;;;;4993627;28;20396;-68
2021/06/24 10:29:25;;;;;;;0.83;0.70;;;24.00;84.40;;;;;;4993618;28;20920;-68
2021/06/24 10:31:52;;;;;;;0.77;0.73;;;24.00;81.50;;;;;;4993327;28;20390;-68
2021/06/24 10:34:20;;;;;;;0.60;0.60;;;24.30;88.40;;;;;;4993361;28;20211;-70
2021/06/24 10:37:08;;;;;;;0.67;0.67;;;25.00;82.90;;;;;;4993646;28;20972;-68
2021/06/24 10:39:34;;;;;;;0.50;0.50;;;25.60;81.30;;;;;;4993664;28;20399;-70
2021/06/24 10:42:00;;;;;;;0.73;0.73;;;26.80;79.90;;;;;;4993229;28;20406;-69
2021/06/24 10:44:44;;;;;;;0.93;0.90;;;26.90;73.60;;;;;;4993604;28;20409;-69
2021/06/24 10:47:10;;;;;;;0.70;0.70;;;26.60;74.90;;;;;;4993573;28;20540;-69
2021/06/24 10:49:38;;;;;;;1.50;1.20;;;25.80;76.80;;;;;;4993431;28;20407;-69
2021/06/24 10:52:27;;;;;;;1.33;1.23;;;25.20;76.90;;;;;;4991927;28;20418;-69
2021/06/24 10:54:57;;;;;;;4.63;2.97;;;24.70;78.30;;;;;;4993461;28;20438;-70
2021/06/24 10:57:34;;;;;;;3.60;2.10;;;24.40;78.90;;;;;;4993914;28;20424;-70
2021/06/24 11:00:34;;;;;;;2.00;1.90;;;23.70;80.10;;;;;;4993343;28;20492;-69
2021/06/24 11:03:02;;;;;;;1.67;1.50;;;23.60;82.70;;;;;;4995473;28;20374;-70
2021/06/24 11:05:49;;;;;;;3.17;1.67;;;23.80;81.80;;;;;;4996694;28;20427;-70
2021/06/24 11:08:18;;;;;;;1.50;1.40;;;24.00;84.70;;;;;;4996894;28;20411;-70
2021/06/24 11:10:56;;;;;;;1.47;1.37;;;23.80;81.90;;;;;;4996776;28;20404;-68
2021/06/24 11:16:04;;;;;;;0.80;0.80;;;23.60;84.00;;;;;;4996774;28;20399;-70
2021/06/24 11:18:36;;;;;;;1.53;0.60;;;23.90;81.10;;;;;;4996406;28;20407;-69
2021/06/24 11:21:12;;;;;;;0.70;0.60;;;23.70;77.10;;;;;;4996360;28;20465;-71
2021/06/24 11:23:54;;;;;;;1.60;1.50;;;23.70;79.50;;;;;;4996744;28;20403;-69
2021/06/24 11:26:31;;;;;;;0.70;0.70;;;23.50;80.60;;;;;;4996580;28;20414;-71
2021/06/24 11:29:04;;;;;;;0.80;0.80;;;23.90;85.80;;;;;;4996594;28;20399;-68
2021/06/24 11:31:37;;;;;;;2.50;0.70;;;24.40;80.50;;;;;;4996234;28;20470;-70
2021/06/24 11:36:47;;;;;;;0.70;0.70;;;25.20;83.20;;;;;;4996430;28;20381;-69
2021/06/24 11:39:22;;;;;;;0.90;0.60;;;25.80;79.70;;;;;;4996172;28;20911;-68
2021/06/24 11:41:54;;;;;;;0.77;0.60;;;25.70;83.90;;;;;;4995993;28;20491;-69
2021/06/24 11:44:27;;;;;;;0.60;0.60;;;25.80;77.40;;;;;;4996024;28;20448;-70
2021/06/24 11:46:56;;;;;;;0.70;0.70;;;26.20;74.30;;;;;;4996198;28;20407;-70
2021/06/24 11:49:35;;;;;;;0.80;0.80;;;26.10;80.10;;;;;;4996094;28;20425;-68
2021/06/24 12:01:30;;;;;;;1.43;0.70;;;24.90;87.80;;;;;;4996257;28;20377;-68
2021/06/24 12:03:27;;;;;;;1.27;0.70;;;25.10;82.50;;;;;;4992508;28;20911;-69
2021/06/24 12:05:54;;;;;;;0.60;0.60;;;25.20;85.80;;;;;;4995885;28;20391;-68
2021/06/24 12:08:21;;;;;;;1.07;0.70;;;25.30;80.30;;;;;;4994408;28;20168;-67
2021/06/24 12:10:46;;;;;;;0.60;0.60;;;25.00;81.30;;;;;;4995624;28;20382;-68
2021/06/24 12:13:12;;;;;;;1.67;0.70;;;24.90;85.80;;;;;;4994669;28;20417;-70
2021/06/24 12:15:37;;;;;;;2.83;0.80;;;24.90;75.50;;;;;;4995308;28;20709;-70
2021/06/24 12:18:03;;;;;;;1.00;1.00;;;25.00;78.30;;;;;;4995560;28;20196;-68
2021/06/24 12:20:29;;;;;;;0.87;0.87;;;24.60;81.00;;;;;;4995372;28;20176;-69
2021/06/24 12:23:05;;;;;;;0.60;0.60;;;23.90;78.80;;;;;;4995209;28;20538;-69
2021/06/24 12:25:36;;;;;;;1.67;0.90;;;24.00;82.70;;;;;;4995316;28;20183;-68
2021/06/24 12:28:06;;;;;;;1.73;1.10;;;24.20;80.90;;;;;;4995422;28;20445;-70
2021/06/24 12:30:41;;;;;;;0.93;0.93;;;24.30;81.70;;;;;;4995427;28;20405;-68
2021/06/24 12:33:13;;;;;;;1.10;1.10;;;24.20;82.60;;;;;;4994987;28;20453;-71
2021/06/24 12:35:44;;;;;;;1.23;1.13;;;24.30;82.40;;;;;;4994958;28;20430;-70
2021/06/24 12:38:11;;;;;;;1.00;1.00;;;24.30;80.90;;;;;;4995203;28;20407;-67
2021/06/24 12:40:43;;;;;;;1.40;1.30;;;24.20;80.30;;;;;;4995138;28;20952;-70
2021/06/24 12:43:16;;;;;;;1.50;1.40;;;24.10;81.40;;;;;;4994781;28;20384;-68
2021/06/24 12:45:41;;;;;;;0.87;0.83;;;24.00;84.00;;;;;;4994850;28;20839;-70
2021/06/24 12:48:27;;;;;;;1.20;1.03;;;23.80;80.90;;;;;;4994924;28;20481;-70
2021/06/24 12:50:54;;;;;;;1.57;1.10;;;23.60;83.50;;;;;;4981447;28;20187;-69
2021/06/24 12:53:48;;;;;;;1.30;1.20;;;23.50;83.90;;;;;;4995013;28;20504;-69
2021/06/24 12:56:24;;;;;;;1.23;1.13;;;23.50;84.30;;;;;;4992215;28;20891;-70
2021/06/24 12:58:51;;;;;;;0.93;0.93;;;23.50;81.90;;;;;;4994751;28;20447;-71
2021/06/24 13:01:19;;;;;;;1.10;1.00;;;23.50;81.80;;;;;;4994523;28;20385;-70
2021/06/24 13:03:54;;;;;;;1.23;1.13;;;23.50;87.10;;;;;;4994322;28;20558;-68
2021/06/24 13:06:27;;;;;;;1.50;1.13;;;22.80;84.90;;;;;;4994537;28;20778;-69
2021/06/24 13:08:56;;;;;;;1.20;1.10;;;22.50;85.80;;;;;;4994583;28;20401;-68